createdAt,value
2023-01-05T00:03:31.616Z,100.00
2023-01-05T00:08:37.456Z,100.00
2023-01-05T00:13:58.400Z,100.00
2023-01-05T00:19:20.086Z,100.00
2023-01-05T00:24:22.970Z,100.00
2023-01-05T00:29:25.689Z,100.00
2023-01-05T00:34:29.880Z,100.00
2023-01-05T00:39:32.659Z,100.00
2023-01-05T00:44:35.437Z,100.00
2023-01-05T00:49:39.592Z,100.00
2023-01-05T00:54:42.485Z,100.00
2023-01-05T00:59:45.253Z,100.00
2023-01-05T01:04:51.449Z,100.00
2023-01-05T01:09:54.325Z,100.00
2023-01-05T01:14:57.064Z,100.00
2023-01-05T01:20:01.558Z,100.00
2023-01-05T01:25:05.216Z,100.00
2023-01-05T01:30:09.580Z,100.00
2023-01-05T01:35:14.195Z,100.00
2023-01-05T01:40:17.015Z,100.00
2023-01-05T01:45:21.556Z,100.00
2023-01-05T01:50:31.780Z,100.00
2023-01-05T01:55:36.703Z,100.00
2023-01-05T02:00:41.149Z,100.00
2023-01-05T02:05:45.325Z,100.00
2023-01-05T02:11:01.360Z,100.00
2023-01-05T02:16:16.526Z,100.00
2023-01-05T02:21:35.142Z,100.00
2023-01-05T02:27:01.725Z,100.00
2023-01-05T02:32:14.534Z,100.00
2023-01-05T02:37:25.677Z,100.00
2023-01-05T02:42:35.291Z,100.00
2023-01-05T02:47:43.982Z,100.00
2023-01-05T02:52:54.617Z,100.00
2023-01-05T02:58:00.883Z,100.00
2023-01-05T03:03:12.629Z,100.00
2023-01-05T03:08:29.067Z,100.00
2023-01-05T03:13:44.590Z,100.00
2023-01-05T03:19:13.503Z,100.00
2023-01-05T03:24:35.409Z,100.00
2023-01-05T03:29:57.078Z,100.00
2023-01-05T03:35:23.630Z,100.00
2023-01-05T03:40:30.763Z,100.00
2023-01-05T03:45:35.500Z,100.00
2023-01-05T03:50:40.803Z,100.00
2023-01-05T03:55:47.576Z,100.00
2023-01-05T04:00:50.719Z,100.00
2023-01-05T04:05:58.161Z,100.00
2023-01-05T04:11:15.025Z,100.00
2023-01-05T04:16:22.417Z,100.00
2023-01-05T04:21:28.243Z,100.00
2023-01-05T04:26:32.600Z,100.00
2023-01-05T04:31:36.150Z,100.00
2023-01-05T04:36:41.538Z,100.00
2023-01-05T04:41:50.441Z,100.00
2023-01-05T04:46:55.651Z,100.00
2023-01-05T04:52:00.618Z,100.00
2023-01-05T04:57:07.155Z,100.00
2023-01-05T05:02:11.977Z,100.00
2023-01-05T05:07:20.888Z,100.00
2023-01-05T05:12:24.122Z,100.00
2023-01-05T05:17:28.499Z,100.00
2023-01-05T05:22:33.348Z,100.00
2023-01-05T05:27:37.861Z,100.00
2023-01-05T05:32:44.155Z,100.00
2023-01-05T05:37:54.410Z,100.00
2023-01-05T05:42:59.128Z,100.00
2023-01-05T05:48:02.979Z,100.00
2023-01-05T05:53:07.681Z,100.00
2023-01-05T05:58:10.557Z,100.00
2023-01-05T06:03:13.662Z,100.00
2023-01-05T06:08:17.934Z,100.00
2023-01-05T06:13:20.870Z,100.00
2023-01-05T06:18:23.652Z,100.00
2023-01-05T06:23:27.777Z,100.00
2023-01-05T06:28:30.665Z,100.00
2023-01-05T06:33:33.445Z,100.00
2023-01-05T06:38:38.300Z,100.00
2023-01-05T06:43:41.081Z,100.00
2023-01-05T06:48:44.314Z,100.00
2023-01-05T06:53:49.189Z,100.00
2023-01-05T06:58:51.957Z,100.00
2023-01-05T07:03:55.282Z,100.00
2023-01-05T07:09:00.579Z,100.00
2023-01-05T07:14:04.239Z,100.00
2023-01-05T07:19:08.610Z,100.00
2023-01-05T07:24:14.191Z,100.00
2023-01-05T07:29:17.324Z,100.00
2023-01-05T07:34:25.268Z,100.00
2023-01-05T07:39:29.568Z,100.00
2023-01-05T07:44:37.406Z,100.00
2023-01-05T07:49:41.129Z,100.00
2023-01-05T07:54:46.414Z,100.00
2023-01-05T07:59:49.153Z,100.00
2023-01-05T08:04:56.342Z,100.00
2023-01-05T08:10:17.654Z,100.00
2023-01-05T08:15:21.884Z,100.00
2023-01-05T08:20:25.460Z,100.00
2023-01-05T08:25:29.636Z,100.00
2023-01-05T08:30:32.528Z,100.00
2023-01-05T08:35:41.911Z,100.00
2023-01-05T08:40:46.171Z,100.00
2023-01-05T08:45:49.611Z,100.00
2023-01-05T08:50:52.479Z,100.00
2023-01-05T08:55:59.741Z,100.00
2023-01-05T09:01:06.754Z,100.00
2023-01-05T09:06:12.024Z,100.00
2023-01-05T09:11:19.430Z,100.00
2023-01-05T09:21:49.949Z,100.00
2023-01-05T09:26:55.350Z,100.00
2023-01-05T09:31:59.680Z,100.00
2023-01-05T09:37:05.181Z,100.00
2023-01-05T09:42:14.935Z,100.00
2023-01-05T09:47:22.644Z,100.00
2023-01-05T09:52:28.583Z,100.00
2023-01-05T09:57:35.266Z,100.00
2023-01-05T10:02:47.976Z,100.00
2023-01-05T10:07:57.184Z,100.00
2023-01-05T10:13:07.386Z,100.00
2023-01-05T10:18:14.328Z,100.00
2023-01-05T10:23:32.277Z,100.00
2023-01-05T10:28:46.889Z,100.00
2023-01-05T10:33:57.912Z,100.00
2023-01-05T10:39:18.115Z,100.00
2023-01-05T10:44:40.627Z,100.00
2023-01-05T10:49:46.777Z,100.00
2023-01-05T10:54:53.469Z,100.00
2023-01-05T11:00:00.119Z,100.00
2023-01-05T11:05:07.171Z,100.00
2023-01-05T11:10:24.881Z,100.00
2023-01-05T11:15:30.262Z,100.00
2023-01-05T11:20:33.100Z,100.00
2023-01-05T11:25:36.506Z,100.00
2023-01-05T11:30:47.941Z,100.00
2023-01-05T11:35:51.241Z,100.00
2023-01-05T11:40:56.131Z,100.00
2023-01-05T11:46:04.010Z,100.00
2023-01-05T11:51:06.952Z,100.00
2023-01-05T11:56:21.389Z,100.00
2023-01-05T12:01:54.212Z,100.00
2023-01-05T12:07:21.588Z,100.00
2023-01-05T12:12:56.533Z,100.00
2023-01-05T12:18:16.828Z,100.00
2023-01-05T12:24:01.938Z,100.00
2023-01-05T12:35:36.855Z,98.01
2023-01-05T12:40:54.952Z,96.78
2023-01-05T12:46:14.554Z,93.41
2023-01-05T12:51:25.806Z,91.45
2023-01-05T12:56:32.219Z,92.52
2023-01-05T13:01:42.462Z,88.05
2023-01-05T13:06:55.796Z,87.62
2023-01-05T13:12:10.144Z,88.83
2023-01-05T13:17:22.220Z,89.48
2023-01-05T13:22:30.546Z,89.72
2023-01-05T13:27:33.813Z,91.13
2023-01-05T13:32:51.510Z,90.81
2023-01-05T13:38:31.266Z,90.16
2023-01-05T13:43:49.635Z,91.10
2023-01-05T13:49:06.095Z,92.27
2023-01-05T13:54:17.626Z,93.97
2023-01-05T13:59:39.924Z,95.00
2023-01-05T14:04:47.548Z,96.81
2023-01-05T14:09:55.756Z,97.75
2023-01-05T14:15:02.448Z,98.33
2023-01-05T14:20:30.674Z,98.38
2023-01-05T14:25:48.513Z,99.04
2023-01-05T14:30:53.637Z,99.89
2023-01-05T14:35:56.560Z,100.00
2023-01-05T14:41:01.759Z,100.00
2023-01-05T14:46:09.902Z,100.00
2023-01-05T14:51:21.676Z,100.00
2023-01-05T14:56:27.891Z,100.00
2023-01-05T15:01:43.788Z,100.00
2023-01-05T15:07:04.163Z,100.00
2023-01-05T15:12:48.974Z,100.00
2023-01-05T15:18:10.055Z,100.00
2023-01-05T15:23:31.300Z,100.00
2023-01-05T15:29:00.316Z,100.00
2023-01-05T15:34:20.292Z,100.00
2023-01-05T15:39:28.904Z,100.00
2023-01-05T15:44:38.907Z,100.00
2023-01-05T15:49:43.405Z,100.00
2023-01-05T15:54:58.727Z,100.00
2023-01-05T16:00:01.735Z,100.00
2023-01-05T16:05:19.217Z,100.00
2023-01-05T16:10:25.195Z,100.00
2023-01-05T16:15:30.003Z,100.00
2023-01-05T16:20:36.812Z,100.00
2023-01-05T16:25:43.383Z,100.00
2023-01-05T16:30:47.553Z,100.00
2023-01-05T16:35:53.705Z,100.00
2023-01-05T16:41:07.746Z,100.00
2023-01-05T16:46:35.169Z,100.00
2023-01-05T16:51:42.701Z,100.00
2023-01-05T16:56:53.564Z,100.00
2023-01-05T17:01:56.751Z,100.00
2023-01-05T17:07:03.639Z,100.00
2023-01-05T17:12:11.758Z,100.00
2023-01-05T17:17:15.758Z,100.00
2023-01-05T17:22:20.540Z,100.00
2023-01-05T17:27:23.747Z,100.00
2023-01-05T17:32:27.772Z,100.00
2023-01-05T17:37:31.874Z,100.00
2023-01-05T17:42:44.202Z,100.00
2023-01-05T17:47:48.445Z,100.00
2023-01-05T17:52:52.736Z,100.00
2023-01-05T17:57:58.177Z,100.00
2023-01-05T18:03:01.787Z,100.00
2023-01-05T18:13:18.307Z,100.00
2023-01-05T18:18:25.637Z,100.00
2023-01-05T18:23:30.227Z,100.00
2023-01-05T18:28:33.129Z,100.00
2023-01-05T18:33:36.380Z,100.00
2023-01-05T18:38:41.901Z,100.00
2023-01-05T18:43:45.506Z,100.00
2023-01-05T18:48:50.860Z,100.00
2023-01-05T18:53:55.123Z,100.00
2023-01-05T18:58:58.762Z,100.00
2023-01-05T19:04:04.647Z,100.00
2023-01-05T19:09:10.910Z,100.00
2023-01-05T19:14:15.501Z,100.00
2023-01-05T19:19:20.665Z,100.00
2023-01-05T19:24:26.926Z,100.00
2023-01-05T19:29:29.765Z,100.00
2023-01-05T19:34:32.595Z,100.00
2023-01-05T19:39:36.820Z,100.00
2023-01-05T19:44:39.620Z,100.00
2023-01-05T19:49:42.737Z,100.00
2023-01-05T19:54:47.581Z,100.00
2023-01-05T19:59:51.389Z,100.00
2023-01-05T20:04:54.349Z,100.00
2023-01-05T20:09:58.587Z,100.00
2023-01-05T20:15:01.853Z,100.00
2023-01-05T20:20:05.226Z,100.00
2023-01-05T20:25:10.954Z,100.00
2023-01-05T20:30:14.507Z,100.00
2023-01-05T20:35:17.471Z,100.00
2023-01-05T20:40:21.819Z,100.00
2023-01-05T20:45:24.872Z,100.00
2023-01-05T20:50:27.747Z,100.00
2023-01-05T20:55:32.000Z,100.00
2023-01-05T21:00:34.988Z,100.00
2023-01-05T21:05:58.113Z,100.00
2023-01-05T21:11:03.536Z,100.00
2023-01-05T21:16:07.348Z,100.00
2023-01-05T21:21:10.913Z,100.00
2023-01-05T21:26:16.091Z,100.00
2023-01-05T21:31:21.528Z,100.00
2023-01-05T21:36:26.129Z,100.00
2023-01-05T21:41:48.117Z,100.00
2023-01-05T21:46:51.703Z,100.00
2023-01-05T21:52:11.865Z,100.00
2023-01-05T21:57:16.125Z,100.00
2023-01-05T22:02:19.079Z,100.00
2023-01-05T22:07:21.812Z,100.00
2023-01-05T22:12:25.960Z,100.00
2023-01-05T22:17:28.801Z,100.00
2023-01-05T22:22:31.951Z,100.00
2023-01-05T22:27:36.107Z,100.00
2023-01-05T22:32:39.393Z,100.00
2023-01-05T22:37:42.187Z,100.00
2023-01-05T22:42:46.404Z,100.00
2023-01-05T22:47:49.157Z,100.00
2023-01-05T22:52:51.882Z,100.00
2023-01-05T22:57:56.201Z,100.00
2023-01-05T23:03:00.139Z,100.00
2023-01-05T23:08:02.874Z,100.00
2023-01-05T23:13:07.172Z,100.00
2023-01-05T23:18:09.901Z,100.00
2023-01-05T23:23:12.781Z,100.00
2023-01-05T23:28:18.170Z,100.00
2023-01-05T23:33:23.198Z,100.00
2023-01-05T23:38:27.607Z,100.00
2023-01-05T23:43:31.709Z,100.00
2023-01-05T23:48:36.074Z,100.00
2023-01-05T23:53:38.876Z,100.00
2023-01-05T23:58:43.335Z,100.00
